Time;durP1;ratioP1;P1;durP2;ratioP2;P2;SDS_P1;SDS_P2;PMS_P1;PMS_P2;Temp;Humidity;BMP_temperature;BMP_pressure;BME280_temperature;BME280_humidity;BME280_pressure;Samples;Min_cycle;Max_cycle;Signal;HPM_P1;HPM_P2
2023/10/18 00:00:55;;;;;;;4.68;2.03;;;;;;;3.79;84.01;100522.72;4862785;29;20048;-71
2023/10/18 00:04:47;;;;;;;5.07;1.90;;;;;;;3.80;83.64;100527.03;4862753;29;20098;-71
2023/10/18 00:07:59;;;;;;;5.60;1.85;;;;;;;3.72;83.23;100516.88;4863037;29;20065;-71
2023/10/18 00:11:10;;;;;;;6.15;2.28;;;;;;;3.77;83.71;100501.25;4862940;29;20122;-71
2023/10/18 00:14:29;;;;;;;6.95;2.20;;;;;;;3.65;84.24;100517.06;4851323;29;20089;-71
2023/10/18 00:17:38;;;;;;;4.03;2.58;;;;;;;3.63;83.97;100509.31;4862491;29;20045;-70
2023/10/18 00:21:01;;;;;;;5.10;2.10;;;;;;;3.68;83.33;100512.66;4862609;29;20049;-71
2023/10/18 00:24:09;;;;;;;5.57;2.30;;;;;;;3.67;83.53;100510.09;4862737;29;20056;-71
2023/10/18 00:27:50;;;;;;;4.93;2.15;;;;;;;3.63;84.10;100509.31;4862547;29;20517;-70
2023/10/18 00:30:55;;;;;;;9.02;2.15;;;;;;;3.68;84.08;100514.41;4850805;29;20056;-71
2023/10/18 00:34:00;;;;;;;3.85;2.13;;;;;;;3.63;84.17;100508.47;4862284;29;20429;-70
2023/10/18 00:37:07;;;;;;;7.35;1.90;;;;;;;3.64;83.81;100505.03;4862068;29;20060;-70
2023/10/18 00:43:33;;;;;;;4.47;1.85;;;;;;;3.52;83.97;100495.81;4850586;29;20520;-70
2023/10/18 00:46:38;;;;;;;4.90;2.05;;;;;;;3.59;84.37;100496.53;4861903;29;20053;-70
2023/10/18 00:49:42;;;;;;;4.85;2.78;;;;;;;3.58;84.32;100497.41;4861884;29;20113;-70
2023/10/18 00:52:46;;;;;;;7.13;2.38;;;;;;;3.63;83.64;100477.44;4861859;29;20421;-70
2023/10/18 00:55:57;;;;;;;;;;;;;;;3.58;83.80;100485.34;4850749;29;20088;-70
2023/10/18 00:59:04;;;;;;;3.95;1.73;;;;;;;3.60;84.43;100482.69;4850153;29;19938;-70
2023/10/18 01:02:11;;;;;;;7.70;3.05;;;;;;;3.65;84.15;100478.28;4850258;29;20055;-70
2023/10/18 01:05:15;;;;;;;5.40;2.25;;;;;;;3.46;84.54;100481.28;4861176;29;20574;-70
2023/10/18 01:08:23;;;;;;;4.80;2.45;;;;;;;3.49;84.26;100480.38;4850171;29;20429;-72
2023/10/18 01:11:32;;;;;;;5.47;2.60;;;;;;;3.50;84.11;100472.56;4850351;29;20102;-71
2023/10/18 01:14:42;;;;;;;5.88;3.58;;;;;;;3.31;83.87;100468.72;4850898;29;20574;-70
2023/10/18 01:17:47;;;;;;;5.00;2.50;;;;;;;3.39;84.25;100472.00;4861378;29;20051;-70
2023/10/18 01:20:52;;;;;;;5.80;2.75;;;;;;;3.38;84.57;100467.72;4861485;29;20052;-70
2023/10/18 01:23:56;;;;;;;4.90;2.30;;;;;;;3.43;84.53;100465.84;4861396;29;20113;-71
2023/10/18 01:27:05;;;;;;;7.18;3.67;;;;;;;3.38;84.81;100462.56;4849702;29;20097;-70
2023/10/18 01:30:09;;;;;;;4.35;2.58;;;;;;;3.27;84.92;100461.94;4849846;29;20111;-71
2023/10/18 01:33:15;;;;;;;5.80;4.30;;;;;;;3.34;85.42;100463.47;4861111;29;20405;-71
2023/10/18 01:36:30;;;;;;;5.57;3.72;;;;;;;3.32;85.09;100457.53;4849985;29;20569;-70
2023/10/18 01:39:33;;;;;;;5.55;3.42;;;;;;;3.31;85.04;100450.63;4861057;29;20064;-70
2023/10/18 01:42:38;;;;;;;7.10;4.20;;;;;;;3.37;85.22;100445.31;4849548;29;20083;-70
2023/10/18 01:45:42;;;;;;;7.80;3.00;;;;;;;3.42;84.95;100447.81;4849515;29;20074;-70
2023/10/18 01:48:50;;;;;;;5.40;3.25;;;;;;;3.25;85.18;100448.19;4849325;29;20052;-70
2023/10/18 01:51:54;;;;;;;5.20;3.10;;;;;;;3.43;84.55;100449.50;4860807;29;20143;-71
2023/10/18 01:54:59;;;;;;;4.22;2.70;;;;;;;3.42;84.85;100440.06;4849305;29;20049;-70
2023/10/18 01:58:07;;;;;;;7.80;3.80;;;;;;;3.37;84.50;100432.41;4860697;29;20638;-71
2023/10/18 02:01:12;;;;;;;6.60;4.00;;;;;;;3.33;84.68;100428.19;4860714;29;20078;-71
2023/10/18 02:04:24;;;;;;;9.90;4.25;;;;;;;3.33;85.14;100420.44;4849139;29;20048;-71
2023/10/18 02:07:29;;;;;;;6.72;3.40;;;;;;;3.48;84.68;100425.25;4841318;29;20464;-70
2023/10/18 02:10:34;;;;;;;7.82;3.78;;;;;;;3.39;85.17;100419.47;4841443;29;20056;-70
2023/10/18 02:13:37;;;;;;;8.20;6.00;;;;;;;3.46;85.25;100421.84;4842340;29;20105;-70
2023/10/18 02:16:45;;;;;;;8.13;5.15;;;;;;;3.38;85.55;100416.03;4841971;29;20040;-70
2023/10/18 02:19:49;;;;;;;5.40;3.38;;;;;;;3.25;84.15;100410.31;4841965;29;20044;-70
2023/10/18 02:23:00;;;;;;;5.63;3.67;;;;;;;3.26;84.45;100405.97;4841914;29;20048;-71
2023/10/18 02:26:22;;;;;;;6.25;3.28;;;;;;;3.37;85.50;100397.97;4840961;29;20533;-70
2023/10/18 02:29:27;;;;;;;5.60;3.33;;;;;;;3.31;85.74;100398.94;4841068;29;20109;-71
2023/10/18 02:32:38;;;;;;;5.60;3.75;;;;;;;3.31;85.51;100386.03;4840897;29;20101;-71
2023/10/18 02:35:43;;;;;;;5.22;3.40;;;;;;;3.39;86.31;100389.28;4841877;29;20049;-71
2023/10/18 02:38:49;;;;;;;4.53;2.67;;;;;;;3.13;86.43;100394.25;4841615;29;20053;-71
2023/10/18 02:41:52;;;;;;;9.35;3.25;;;;;;;3.02;86.34;100403.06;4841675;29;20461;-71
2023/10/18 02:44:56;;;;;;;;;;;;;;;3.14;86.57;100391.63;4842002;29;20048;-71
2023/10/18 02:48:00;;;;;;;4.63;3.03;;;;;;;3.23;86.91;100391.41;4841544;29;19972;-71
2023/10/18 02:51:06;;;;;;;5.57;2.80;;;;;;;3.24;85.50;100377.59;4841604;29;20092;-71
2023/10/18 02:54:16;;;;;;;7.28;3.10;;;;;;;3.24;86.98;100369.00;4840658;29;20107;-71
2023/10/18 02:57:19;;;;;;;5.60;3.47;;;;;;;3.24;86.56;100374.16;4841543;29;20124;-71
2023/10/18 03:00:23;;;;;;;;;;;;;;;2.81;87.90;100372.59;4841946;29;20049;-71
2023/10/18 03:03:26;;;;;;;4.00;2.83;;;;;;;2.63;88.13;100368.69;4841545;29;19924;-71
2023/10/18 03:06:33;;;;;;;5.95;3.33;;;;;;;2.83;87.97;100375.97;4848183;29;20055;-71
2023/10/18 03:12:44;;;;;;;;;;;;;;;2.93;85.89;100361.97;4860264;29;20045;-71
2023/10/18 03:16:05;;;;;;;5.65;3.58;;;;;;;2.94;86.92;100360.25;4859747;29;19988;-71
2023/10/18 03:19:12;;;;;;;5.63;3.10;;;;;;;3.03;86.59;100350.56;4859697;29;20076;-71
2023/10/18 03:22:19;;;;;;;5.40;3.15;;;;;;;3.10;86.38;100353.00;4859708;29;20169;-71
2023/10/18 03:25:30;;;;;;;5.82;4.10;;;;;;;3.00;87.51;100348.03;4851594;29;20442;-71
2023/10/18 03:28:34;;;;;;;5.88;3.30;;;;;;;2.95;86.33;100354.19;4863191;29;20098;-71
2023/10/18 03:31:41;;;;;;;5.95;3.40;;;;;;;3.02;85.78;100348.00;4863308;29;20052;-71
2023/10/18 03:34:44;;;;;;;5.93;3.53;;;;;;;3.09;86.05;100340.94;4851727;29;20088;-71
2023/10/18 03:37:47;;;;;;;5.93;3.40;;;;;;;3.16;86.29;100337.31;4863187;29;20140;-70
2023/10/18 03:41:07;;;;;;;6.70;3.40;;;;;;;3.14;86.74;100337.34;4851659;29;20049;-71
2023/10/18 03:44:13;;;;;;;7.72;4.93;;;;;;;3.12;86.87;100330.53;4851530;29;20072;-71
2023/10/18 03:47:24;;;;;;;11.95;6.75;;;;;;;3.12;86.70;100335.69;4862974;29;20121;-71
2023/10/18 03:50:40;;;;;;;6.30;5.15;;;;;;;3.08;86.83;100349.59;4863193;29;20064;-71
2023/10/18 03:53:43;;;;;;;8.65;6.07;;;;;;;3.11;87.62;100354.69;4851349;29;20072;-71
2023/10/18 03:56:51;;;;;;;7.13;4.30;;;;;;;3.15;85.75;100343.38;4851369;29;20068;-70
2023/10/18 03:59:58;;;;;;;8.35;3.75;;;;;;;3.19;86.65;100335.53;4851364;29;20113;-71
2023/10/18 04:03:07;;;;;;;20.95;10.45;;;;;;;3.19;86.48;100332.06;4862771;29;20052;-71
2023/10/18 04:06:21;;;;;;;27.40;14.77;;;;;;;3.22;86.92;100321.66;4862412;29;20082;-71
2023/10/18 04:09:24;;;;;;;25.63;14.35;;;;;;;3.20;87.32;100318.28;4862650;29;20418;-71
2023/10/18 04:12:27;;;;;;;10.77;4.63;;;;;;;3.05;88.07;100323.81;4851184;29;20101;-71
2023/10/18 04:15:37;;;;;;;;;;;;;;;3.00;88.01;100317.03;4863000;29;20070;-70
2023/10/18 04:18:43;;;;;;;6.85;3.78;;;;;;;3.11;87.75;100303.00;4862332;29;19980;-70
2023/10/18 04:21:52;;;;;;;5.18;2.90;;;;;;;3.09;87.59;100300.44;4862340;29;20589;-70
2023/10/18 04:24:55;;;;;;;5.68;2.95;;;;;;;3.02;87.52;100286.84;4862316;29;20105;-70
2023/10/18 04:27:59;;;;;;;3.88;2.70;;;;;;;3.02;87.13;100289.41;4862316;29;20521;-70
2023/10/18 04:31:04;;;;;;;4.32;2.78;;;;;;;2.96;87.42;100284.41;4862428;29;20047;-70
2023/10/18 04:34:11;;;;;;;10.60;3.30;;;;;;;2.95;87.23;100282.72;4843177;29;20080;-71
2023/10/18 04:37:14;;;;;;;4.35;2.85;;;;;;;3.00;87.14;100269.72;4858700;29;20048;-71
2023/10/18 04:40:26;;;;;;;4.18;2.85;;;;;;;2.98;86.91;100272.31;4862443;29;20060;-71
2023/10/18 04:43:32;;;;;;;4.68;3.22;;;;;;;2.81;87.23;100271.91;4843687;29;20125;-71
2023/10/18 04:46:38;;;;;;;13.10;3.28;;;;;;;2.77;87.53;100272.84;4843559;29;20049;-70
2023/10/18 04:49:50;;;;;;;5.22;2.67;;;;;;;2.58;88.37;100266.41;4843520;29;20053;-71
2023/10/18 04:52:56;;;;;;;6.70;3.10;;;;;;;2.73;87.25;100271.22;4843472;29;20473;-71
2023/10/18 04:56:02;;;;;;;5.30;2.90;;;;;;;2.79;86.99;100271.91;4843524;29;20045;-70
2023/10/18 04:59:52;;;;;;;4.70;2.95;;;;;;;2.89;86.93;100263.94;4832087;29;20106;-70
2023/10/18 05:02:38;;;;;;;8.48;3.53;;;;;;;2.92;87.16;100250.97;4844370;29;20052;-71
2023/10/18 05:05:44;;;;;;;58.15;42.05;;;;;;;2.93;87.45;100242.31;4850029;29;20064;-71
2023/10/18 05:08:48;;;;;;;7.20;4.75;;;;;;;2.94;87.33;100250.03;4861390;29;20051;-70
2023/10/18 05:11:55;;;;;;;5.53;3.63;;;;;;;2.95;87.34;100251.72;4861615;29;20068;-71
2023/10/18 05:18:04;;;;;;;7.78;3.25;;;;;;;2.97;86.91;100244.81;4861401;29;20115;-71
2023/10/18 05:21:08;;;;;;;4.25;3.00;;;;;;;3.07;86.81;100239.41;4857557;29;20076;-71
2023/10/18 05:24:18;;;;;;;4.75;3.00;;;;;;;3.13;86.39;100239.25;4847277;29;20105;-70
2023/10/18 05:27:28;;;;;;;4.68;3.00;;;;;;;2.93;86.99;100243.16;4845725;29;20098;-70
2023/10/18 05:31:24;;;;;;;4.53;2.97;;;;;;;2.96;87.24;100240.50;4849781;29;20055;-70
2023/10/18 05:37:15;;;;;;;8.13;3.15;;;;;;;3.00;86.86;100236.97;4854011;29;20080;-70
2023/10/18 05:43:42;;;;;;;4.75;3.58;;;;;;;2.94;87.16;100244.88;4846995;29;20109;-70
2023/10/18 05:46:46;;;;;;;6.13;2.90;;;;;;;3.00;86.71;100247.31;4852872;29;20065;-70
2023/10/18 05:49:50;;;;;;;4.63;3.83;;;;;;;2.96;86.82;100244.81;4842397;29;20074;-70
2023/10/18 05:52:57;;;;;;;5.95;3.28;;;;;;;3.02;86.77;100244.66;4855705;29;20056;-71
2023/10/18 05:56:07;;;;;;;5.35;3.33;;;;;;;3.08;86.84;100246.25;4860400;29;20070;-71
2023/10/18 06:02:27;;;;;;;7.45;3.00;;;;;;;3.00;87.56;100231.81;4851273;29;20060;-70
2023/10/18 06:05:34;;;;;;;6.72;3.58;;;;;;;2.82;88.48;100234.00;4851295;29;20066;-71
2023/10/18 06:08:38;;;;;;;7.65;4.95;;;;;;;2.86;88.21;100233.03;4842726;29;20057;-70
2023/10/18 06:11:48;;;;;;;9.38;4.18;;;;;;;3.03;87.65;100223.97;4859597;29;20056;-70
2023/10/18 06:14:53;;;;;;;4.90;3.53;;;;;;;3.01;87.97;100204.25;4851506;29;20573;-70
2023/10/18 06:17:57;;;;;;;4.18;3.00;;;;;;;3.07;87.61;100213.56;4859014;29;20521;-70
2023/10/18 06:21:08;;;;;;;5.55;3.35;;;;;;;3.10;87.86;100208.31;4844941;29;20099;-70
2023/10/18 06:24:11;;;;;;;5.78;3.28;;;;;;;3.02;87.52;100213.66;4840352;29;20102;-71
2023/10/18 06:27:16;;;;;;;11.35;4.30;;;;;;;3.08;87.69;100217.84;4840721;29;20517;-71
2023/10/18 06:30:19;;;;;;;5.18;3.63;;;;;;;3.10;88.04;100216.06;4839815;29;20057;-74
2023/10/18 06:33:23;;;;;;;;;;;;;;;3.05;88.09;100208.44;4840209;29;20177;-68
2023/10/18 06:36:31;;;;;;;4.75;2.90;;;;;;;3.06;88.01;100206.69;4840122;29;20330;-68
2023/10/18 06:39:37;;;;;;;5.68;3.70;;;;;;;3.13;87.91;100200.50;4841774;29;20104;-76
2023/10/18 06:42:42;;;;;;;6.47;4.28;;;;;;;3.05;88.31;100198.09;4839674;29;20065;-68
2023/10/18 06:45:46;;;;;;;4.72;3.47;;;;;;;3.15;88.62;100209.03;4856150;29;20052;-69
2023/10/18 06:48:50;;;;;;;9.73;5.68;;;;;;;3.21;87.58;100203.69;4858441;29;20064;-69
2023/10/18 06:51:53;;;;;;;5.95;3.50;;;;;;;3.23;88.16;100202.78;4842453;29;20143;-68
2023/10/18 06:54:56;;;;;;;5.78;3.17;;;;;;;3.26;87.87;100194.94;4828842;29;20119;-66
2023/10/18 06:58:05;;;;;;;5.03;2.85;;;;;;;3.40;88.19;100199.72;4841184;29;20136;-68
2023/10/18 07:01:13;;;;;;;3.78;2.53;;;;;;;3.53;87.81;100186.44;4844154;29;20140;-74
2023/10/18 07:04:18;;;;;;;6.70;4.18;;;;;;;3.51;88.10;100183.91;4856423;29;20105;-67
2023/10/18 07:07:21;;;;;;;6.07;3.00;;;;;;;3.53;88.13;100186.44;4844549;29;20057;-67
2023/10/18 07:10:52;;;;;;;5.72;3.38;;;;;;;3.53;89.54;100186.44;4860353;29;20159;-67
2023/10/18 07:13:50;;;;;;;3.83;2.92;;;;;;;3.61;89.17;100184.50;4861931;29;20048;-68
2023/10/18 07:17:00;;;;;;;6.60;3.67;;;;;;;3.64;88.46;100184.41;4861830;29;20446;-68
2023/10/18 07:20:15;;;;;;;4.53;2.80;;;;;;;3.65;88.29;100179.19;4859118;29;20136;-68
2023/10/18 07:23:21;;;;;;;6.28;3.10;;;;;;;3.81;88.59;100169.22;4842820;29;20053;-68
2023/10/18 07:26:24;;;;;;;6.22;3.63;;;;;;;3.85;89.47;100162.22;4852708;29;20072;-69
2023/10/18 07:29:27;;;;;;;5.82;4.07;;;;;;;3.93;88.93;100174.03;4861701;29;20052;-68
2023/10/18 07:32:35;;;;;;;6.25;4.20;;;;;;;4.06;88.71;100171.06;4861615;29;20044;-68
2023/10/18 07:36:35;;;;;;;8.75;4.15;;;;;;;3.95;89.23;100161.03;4855514;29;20074;-67
2023/10/18 07:39:41;;;;;;;5.35;4.22;;;;;;;3.92;90.79;100159.41;4852476;29;20076;-70
2023/10/18 07:42:44;;;;;;;5.53;4.05;;;;;;;4.13;90.56;100150.13;4832011;29;20064;-70
2023/10/18 07:45:53;;;;;;;5.55;3.65;;;;;;;4.32;90.17;100145.22;4843553;29;20072;-69
2023/10/18 07:49:04;;;;;;;6.97;4.03;;;;;;;4.50;90.10;100135.13;4842293;29;20518;-68
2023/10/18 07:52:07;;;;;;;5.63;3.83;;;;;;;4.67;90.89;100122.47;4856210;29;20055;-68
2023/10/18 07:55:11;;;;;;;6.05;4.18;;;;;;;4.81;91.86;100117.66;4861701;29;20045;-68
2023/10/18 07:58:32;;;;;;;6.60;4.40;;;;;;;4.89;92.17;100107.88;4861752;29;20074;-68
2023/10/18 08:01:51;;;;;;;7.03;4.10;;;;;;;4.95;93.00;100104.22;4861709;29;20056;-68
2023/10/18 08:05:00;;;;;;;6.78;4.68;;;;;;;5.08;93.19;100107.22;4861961;29;20120;-68
2023/10/18 08:08:08;;;;;;;7.82;5.00;;;;;;;5.18;93.05;100105.97;4861301;29;20593;-68
2023/10/18 08:11:14;;;;;;;7.97;5.60;;;;;;;5.25;92.62;100104.00;4860754;29;20129;-67
2023/10/18 08:14:19;;;;;;;9.13;6.68;;;;;;;5.35;91.34;100107.94;4864144;29;20486;-67
2023/10/18 08:23:57;;;;;;;11.40;8.07;;;;;;;5.74;91.20;100084.84;4861025;29;20072;-69
2023/10/18 08:27:11;;;;;;;16.88;8.70;;;;;;;5.87;90.70;100076.53;4860544;29;20056;-68
2023/10/18 08:30:24;;;;;;;11.82;7.93;;;;;;;6.01;90.05;100069.94;4860785;29;20144;-67
2023/10/18 08:33:27;;;;;;;11.95;7.43;;;;;;;6.17;89.44;100059.75;4859694;29;20076;-68
2023/10/18 08:36:34;;;;;;;8.05;7.10;;;;;;;6.28;88.77;100060.13;4842664;29;20509;-70
2023/10/18 08:39:40;;;;;;;11.75;7.93;;;;;;;6.39;88.15;100058.88;4842223;29;20132;-67
2023/10/18 08:42:50;;;;;;;10.35;7.65;;;;;;;6.46;87.03;100073.28;4842494;29;20089;-69
2023/10/18 08:45:54;;;;;;;12.48;8.18;;;;;;;6.53;86.52;100066.91;4842672;29;20351;-76
2023/10/18 08:48:59;;;;;;;12.63;8.48;;;;;;;6.62;86.56;100066.50;4842013;29;20517;-67
2023/10/18 08:52:08;;;;;;;10.88;8.05;;;;;;;6.71;86.72;100065.28;4841996;29;20121;-67
2023/10/18 08:55:22;;;;;;;11.75;7.93;;;;;;;6.71;87.13;100055.72;4847655;29;20133;-68
2023/10/18 08:58:28;;;;;;;14.32;8.48;;;;;;;6.81;84.93;100050.13;4842517;29;20686;-68
2023/10/18 09:01:34;;;;;;;9.85;7.68;;;;;;;6.95;84.78;100045.97;4848448;29;20082;-69
2023/10/18 09:04:37;;;;;;;9.95;8.00;;;;;;;7.06;84.50;100039.47;4859878;29;20049;-70
2023/10/18 09:07:44;;;;;;;15.32;8.55;;;;;;;7.13;83.49;100041.72;4860322;29;20148;-70
2023/10/18 09:10:54;;;;;;;11.35;8.45;;;;;;;7.31;84.16;100039.19;4859817;29;20089;-69
2023/10/18 09:14:15;;;;;;;13.25;8.98;;;;;;;7.50;84.60;100029.59;4860163;29;20577;-66
2023/10/18 09:17:22;;;;;;;10.75;7.55;;;;;;;7.65;82.34;100025.41;4859852;29;20505;-66
2023/10/18 09:20:26;;;;;;;11.02;8.23;;;;;;;7.74;81.16;100024.97;4859735;29;20065;-71
2023/10/18 09:23:30;;;;;;;10.50;7.70;;;;;;;7.86;79.93;100011.38;4859820;29;20117;-78
2023/10/18 09:26:41;;;;;;;9.48;6.85;;;;;;;8.06;82.10;100001.72;4859540;29;20068;-76
2023/10/18 09:29:44;;;;;;;10.25;7.90;;;;;;;8.27;80.70;100002.41;4859899;29;20105;-68
2023/10/18 09:32:49;;;;;;;11.38;8.18;;;;;;;8.37;79.47;99993.19;4859528;29;20056;-68
2023/10/18 09:36:01;;;;;;;9.68;7.70;;;;;;;8.49;80.99;99992.59;4859584;29;20052;-68
2023/10/18 09:39:13;;;;;;;9.20;7.50;;;;;;;8.58;79.83;99976.47;4859424;29;20105;-69
2023/10/18 09:42:16;;;;;;;12.32;8.05;;;;;;;8.76;81.61;99968.59;4859639;29;20102;-68
2023/10/18 09:45:20;;;;;;;;;;;;;;;8.72;78.24;99952.28;4859705;29;20445;-68
2023/10/18 09:48:25;;;;;;;10.82;6.40;;;;;;;8.80;79.26;99946.66;4847854;29;19970;-68
2023/10/18 09:51:31;;;;;;;11.32;7.00;;;;;;;8.79;78.26;99944.97;4858824;29;20187;-68
2023/10/18 09:54:36;;;;;;;8.80;7.32;;;;;;;8.84;78.43;99945.56;4847090;29;20416;-68
2023/10/18 09:57:41;;;;;;;9.77;7.53;;;;;;;8.82;77.43;99939.59;4846398;29;20085;-68
2023/10/18 10:00:50;;;;;;;11.38;7.47;;;;;;;8.88;78.02;99930.59;4849139;29;20049;-68
2023/10/18 10:03:58;;;;;;;8.63;7.07;;;;;;;8.97;77.78;99917.91;4849053;29;20048;-68
2023/10/18 10:10:43;;;;;;;11.53;6.93;;;;;;;9.05;76.27;99902.66;4848704;29;20189;-67
2023/10/18 10:13:50;;;;;;;9.13;5.93;;;;;;;9.21;76.52;99907.00;4845702;29;20080;-68
2023/10/18 10:17:10;;;;;;;10.20;6.78;;;;;;;9.32;75.88;99896.81;4855112;29;20555;-68
2023/10/18 10:20:16;;;;;;;8.35;6.80;;;;;;;9.38;75.38;99901.69;4859172;29;20524;-68
2023/10/18 10:23:19;;;;;;;7.88;6.28;;;;;;;9.41;74.47;99896.31;4858878;29;20051;-68
2023/10/18 10:26:27;;;;;;;;;;;;;;;9.51;74.83;99891.41;4859144;29;20154;-68
2023/10/18 10:29:34;;;;;;;8.38;5.63;;;;;;;9.51;73.79;99881.78;4858833;29;20280;-68
2023/10/18 10:32:37;;;;;;;9.63;5.93;;;;;;;9.55;74.04;99865.00;4853341;29;20094;-68
2023/10/18 10:35:46;;;;;;;;;;;;;;;9.64;72.74;99868.88;4829616;29;20053;-67
2023/10/18 10:38:56;;;;;;;8.23;5.90;;;;;;;9.75;73.35;99863.00;4846185;29;19922;-68
2023/10/18 10:42:08;;;;;;;9.07;5.57;;;;;;;9.79;73.34;99859.25;4844636;29;20055;-68
2023/10/18 10:45:38;;;;;;;8.60;5.33;;;;;;;9.93;71.67;99856.69;4856265;29;20052;-65
2023/10/18 10:48:49;;;;;;;13.50;5.28;;;;;;;10.07;73.42;99855.84;4845052;29;20056;-66
2023/10/18 10:51:56;;;;;;;6.93;4.85;;;;;;;10.18;71.83;99839.53;4847571;29;20132;-66
2023/10/18 10:55:04;;;;;;;7.90;5.00;;;;;;;10.37;72.20;99824.41;4857930;29;20459;-66
2023/10/18 10:58:16;;;;;;;7.43;4.70;;;;;;;10.47;71.74;99820.28;4858414;29;20162;-65
2023/10/18 11:01:31;;;;;;;10.55;4.80;;;;;;;10.57;70.98;99810.09;4847486;29;20555;-66
2023/10/18 11:04:46;;;;;;;7.70;4.90;;;;;;;10.68;70.09;99804.16;4846496;29;20052;-66
2023/10/18 11:07:53;;;;;;;6.53;3.85;;;;;;;10.82;69.37;99787.59;4858461;29;20425;-67
2023/10/18 11:10:57;;;;;;;10.70;4.80;;;;;;;10.85;68.63;99772.53;4855512;29;20084;-67
2023/10/18 11:14:05;;;;;;;9.00;4.30;;;;;;;10.84;67.90;99781.31;4840360;29;20118;-66
2023/10/18 11:20:29;;;;;;;8.40;3.78;;;;;;;10.95;66.41;99788.47;4842319;29;20053;-67
2023/10/18 11:23:33;;;;;;;12.82;4.03;;;;;;;11.09;67.32;99779.72;4840000;29;20094;-67
2023/10/18 11:26:43;;;;;;;5.47;3.35;;;;;;;11.17;65.95;99762.56;4839824;29;20049;-67
2023/10/18 11:29:47;;;;;;;8.00;3.80;;;;;;;11.28;66.44;99764.44;4839338;29;20482;-67
2023/10/18 11:32:52;;;;;;;7.03;3.75;;;;;;;11.44;66.46;99745.09;4843933;29;20622;-67
2023/10/18 11:35:56;;;;;;;7.55;3.30;;;;;;;11.56;65.74;99739.03;4843011;29;20045;-67
2023/10/18 11:42:19;;;;;;;5.50;3.15;;;;;;;11.78;64.69;99723.50;4839680;29;20524;-67
2023/10/18 11:45:27;;;;;;;5.45;2.83;;;;;;;11.94;64.17;99704.94;4841178;29;20490;-67
2023/10/18 11:48:41;;;;;;;5.57;3.30;;;;;;;12.17;62.72;99702.47;4843438;29;20087;-67
2023/10/18 11:51:48;;;;;;;4.35;2.63;;;;;;;12.41;62.19;99691.97;4841161;29;20520;-68
2023/10/18 11:55:03;;;;;;;5.32;2.90;;;;;;;12.42;60.45;99688.44;4848277;29;20104;-68
2023/10/18 11:58:09;;;;;;;5.20;2.63;;;;;;;12.42;61.48;99680.56;4854088;29;20110;-68
2023/10/18 12:01:31;;;;;;;6.95;2.58;;;;;;;12.62;61.69;99677.28;4853761;29;20509;-68
2023/10/18 12:04:40;;;;;;;6.07;2.75;;;;;;;12.77;60.12;99673.53;4846738;29;20061;-68
2023/10/18 12:07:46;;;;;;;4.32;2.35;;;;;;;12.81;60.46;99663.63;4843341;29;20525;-68
2023/10/18 12:10:52;;;;;;;5.20;2.50;;;;;;;12.72;60.13;99665.16;4847609;29;20064;-69
2023/10/18 12:13:55;;;;;;;5.03;2.70;;;;;;;12.74;60.79;99668.50;4842956;29;20068;-68
2023/10/18 12:17:00;;;;;;;4.10;2.33;;;;;;;12.72;59.21;99653.84;4842596;29;20061;-68
2023/10/18 12:20:08;;;;;;;4.85;2.20;;;;;;;12.88;57.78;99648.28;4842768;29;20068;-68
2023/10/18 12:23:14;;;;;;;5.38;2.13;;;;;;;13.04;57.12;99639.09;4842601;29;20510;-68
2023/10/18 12:26:17;;;;;;;4.75;2.40;;;;;;;13.17;54.73;99633.75;4842573;29;20418;-68
2023/10/18 12:29:26;;;;;;;6.43;2.50;;;;;;;13.16;53.83;99616.34;4842838;29;20099;-67
2023/10/18 12:32:31;;;;;;;4.78;1.67;;;;;;;13.27;53.79;99605.03;4861060;29;20056;-68
2023/10/18 12:35:34;;;;;;;5.00;1.98;;;;;;;13.59;53.07;99594.63;4861171;29;20105;-67
2023/10/18 12:38:39;;;;;;;5.80;1.73;;;;;;;13.83;51.68;99588.34;4850084;29;20525;-68
2023/10/18 12:41:42;;;;;;;4.10;2.17;;;;;;;13.85;52.77;99582.03;4842251;29;20129;-67
2023/10/18 12:44:55;;;;;;;3.55;1.90;;;;;;;13.78;52.58;99574.75;4842597;29;20111;-68
2023/10/18 12:48:08;;;;;;;4.90;1.65;;;;;;;13.99;52.82;99567.75;4842120;29;20065;-68
2023/10/18 12:51:17;;;;;;;8.32;1.90;;;;;;;14.14;51.76;99571.75;4852078;29;20102;-68
2023/10/18 12:54:29;;;;;;;4.25;2.10;;;;;;;14.16;52.91;99575.09;4860511;29;20523;-68
2023/10/18 12:57:33;;;;;;;5.47;1.60;;;;;;;13.91;52.52;99559.66;4860343;29;20048;-68
2023/10/18 13:00:45;;;;;;;7.35;2.25;;;;;;;14.01;57.23;99552.72;4860244;29;20059;-70
2023/10/18 13:03:59;;;;;;;7.97;2.03;;;;;;;14.34;55.27;99543.81;4860502;29;20087;-69
2023/10/18 13:07:19;;;;;;;4.00;1.80;;;;;;;14.51;52.72;99518.75;4845930;29;20129;-69
2023/10/18 13:10:31;;;;;;;4.95;1.70;;;;;;;14.27;53.62;99513.75;4849629;29;20056;-69
2023/10/18 13:13:35;;;;;;;8.85;1.92;;;;;;;14.14;54.73;99513.09;4860112;29;20080;-69
2023/10/18 13:16:38;;;;;;;5.65;1.90;;;;;;;13.95;55.02;99498.03;4860742;29;20421;-69
2023/10/18 13:19:42;;;;;;;7.38;1.88;;;;;;;13.75;54.35;99483.03;4847080;29;20102;-69
2023/10/18 13:22:45;;;;;;;4.28;2.17;;;;;;;13.54;54.18;99489.09;4841487;29;20115;-71
2023/10/18 13:25:51;;;;;;;4.57;2.10;;;;;;;13.41;53.67;99484.00;4852638;29;20610;-69
2023/10/18 13:29:00;;;;;;;5.43;1.90;;;;;;;13.32;55.42;99473.41;4859936;29;20132;-70
2023/10/18 13:32:06;;;;;;;3.95;1.85;;;;;;;13.40;59.52;99463.97;4859811;29;20117;-68
2023/10/18 13:35:14;;;;;;;6.35;2.28;;;;;;;13.63;58.72;99450.75;4859991;29;20139;-67
2023/10/18 13:38:22;;;;;;;6.18;1.90;;;;;;;13.61;58.30;99439.53;4860471;29;20665;-68
2023/10/18 13:41:25;;;;;;;4.90;1.98;;;;;;;13.58;58.37;99437.97;4858203;29;20518;-68
2023/10/18 13:44:29;;;;;;;4.72;2.20;;;;;;;13.60;58.04;99454.47;4859549;29;20109;-68
2023/10/18 13:47:33;;;;;;;9.18;2.38;;;;;;;13.60;57.10;99449.22;4859458;29;20048;-68
2023/10/18 13:50:37;;;;;;;6.20;2.60;;;;;;;13.49;57.34;99459.75;4859473;29;20098;-69
2023/10/18 13:53:43;;;;;;;7.95;2.50;;;;;;;13.32;58.02;99447.16;4859178;29;20076;-69
2023/10/18 13:56:47;;;;;;;5.32;2.03;;;;;;;13.21;59.06;99451.47;4859318;29;20048;-69
2023/10/18 13:59:50;;;;;;;5.20;2.30;;;;;;;13.13;58.89;99447.78;4859505;29;20056;-68
2023/10/18 14:02:54;;;;;;;5.65;1.70;;;;;;;13.06;59.50;99447.44;4848581;29;20100;-69
2023/10/18 14:05:57;;;;;;;5.45;1.90;;;;;;;12.96;59.72;99441.25;4839786;29;20571;-69
2023/10/18 14:09:10;;;;;;;4.32;1.90;;;;;;;12.99;60.46;99430.50;4839538;29;20143;-68
2023/10/18 14:12:13;;;;;;;5.28;2.25;;;;;;;13.04;65.24;99412.59;4841190;29;20561;-69
2023/10/18 14:15:19;;;;;;;5.47;2.35;;;;;;;12.99;60.91;99420.00;4840370;29;20413;-69
2023/10/18 14:18:25;;;;;;;6.10;1.65;;;;;;;12.99;60.83;99420.00;4840771;29;20053;-69
2023/10/18 14:21:29;;;;;;;7.65;2.13;;;;;;;12.94;60.78;99425.59;4841198;29;20130;-69
2023/10/18 14:24:33;;;;;;;6.60;2.17;;;;;;;12.90;61.14;99426.81;4840686;29;20063;-69
2023/10/18 14:27:36;;;;;;;5.93;2.50;;;;;;;12.90;61.59;99431.25;4842842;29;20122;-69
2023/10/18 14:30:39;;;;;;;7.43;2.08;;;;;;;12.82;62.12;99426.56;4843327;29;20106;-71
2023/10/18 14:33:43;;;;;;;;;;;;;;;12.76;62.49;99420.06;4840777;29;20445;-69
2023/10/18 14:36:50;;;;;;;3.47;1.63;;;;;;;12.76;63.62;99421.81;4840969;29;20381;-67
2023/10/18 14:39:55;;;;;;;7.78;2.60;;;;;;;12.70;64.24;99425.78;4852679;29;20052;-68
2023/10/18 14:42:58;;;;;;;4.03;1.80;;;;;;;12.64;65.80;99421.00;4846693;29;20089;-68
2023/10/18 14:46:02;;;;;;;14.40;2.30;;;;;;;12.59;67.37;99419.69;4850442;29;20076;-68
2023/10/18 14:49:06;;;;;;;4.70;1.88;;;;;;;12.53;68.82;99416.59;4846928;29;20136;-68
2023/10/18 14:52:12;;;;;;;7.85;2.67;;;;;;;12.52;68.77;99409.69;4858452;29;20052;-68
2023/10/18 14:55:15;;;;;;;7.60;2.10;;;;;;;12.49;69.16;99394.19;4854562;29;20049;-68
2023/10/18 14:58:23;;;;;;;7.85;2.30;;;;;;;12.46;69.58;99388.34;4865923;29;20150;-68
2023/10/18 15:01:26;;;;;;;4.03;1.70;;;;;;;12.45;69.41;99378.84;4871928;29;20125;-68
2023/10/18 15:04:31;;;;;;;4.20;1.80;;;;;;;12.47;67.54;99374.28;4872409;29;20112;-68
2023/10/18 15:07:37;;;;;;;3.78;1.77;;;;;;;12.47;67.57;99366.41;4861685;29;20156;-67
2023/10/18 15:11:09;;;;;;;8.57;2.50;;;;;;;12.57;69.03;99372.59;4869334;29;20582;-65
2023/10/18 15:14:14;;;;;;;4.63;1.70;;;;;;;12.49;68.53;99364.53;4858611;29;20113;-68
2023/10/18 15:17:19;;;;;;;6.97;2.05;;;;;;;12.40;65.84;99352.13;4874373;29;20044;-67
2023/10/18 15:20:22;;;;;;;4.85;1.65;;;;;;;12.41;65.21;99345.91;4865102;29;20110;-68